Time;durP1;ratioP1;P1;durP2;ratioP2;P2;SDS_P1;SDS_P2;PMS_P1;PMS_P2;Temp;Humidity;BMP_temperature;BMP_pressure;BME280_temperature;BME280_humidity;BME280_pressure;Samples;Min_cycle;Max_cycle;Signal;HPM_P1;HPM_P2
2023/01/10 00:01:30;;;;;;;11.55;4.50;;;;;;;4.25;100.00;100266.53;5051955;28;20057;-68
2023/01/10 00:03:55;;;;;;;8.38;4.63;;;;;;;4.25;100.00;100289.09;5051525;28;20117;-68
2023/01/10 00:06:21;;;;;;;15.25;4.40;;;;;;;4.15;100.00;100282.41;5043654;28;20119;-68
2023/01/10 00:08:46;;;;;;;12.93;4.70;;;;;;;4.20;100.00;100298.75;5051467;28;20029;-68
2023/01/10 00:13:56;;;;;;;7.03;4.07;;;;;;;4.06;100.00;100289.56;5051732;28;20032;-68
2023/01/10 00:16:22;;;;;;;13.18;4.53;;;;;;;4.13;100.00;100311.03;5047945;28;20021;-68
2023/01/10 00:18:47;;;;;;;13.02;4.45;;;;;;;3.89;100.00;100280.47;5033505;28;20036;-68
2023/01/10 00:21:13;;;;;;;9.00;4.35;;;;;;;4.06;100.00;100310.34;5034169;28;20033;-68
2023/01/10 00:23:39;;;;;;;23.95;5.53;;;;;;;4.03;100.00;100320.81;5051116;28;20028;-67
2023/01/10 00:26:05;;;;;;;19.33;5.20;;;;;;;3.91;100.00;100310.75;5051624;28;20021;-68
2023/01/10 00:28:33;;;;;;;12.90;4.75;;;;;;;3.95;100.00;100321.91;5051623;28;20047;-67
2023/01/10 00:31:00;;;;;;;13.55;4.53;;;;;;;3.95;100.00;100333.19;5052116;28;20025;-68
2023/01/10 00:33:27;;;;;;;21.30;4.93;;;;;;;3.82;100.00;100310.94;5051732;28;20680;-67
2023/01/10 00:35:52;;;;;;;16.23;5.07;;;;;;;3.94;100.00;100336.66;5051850;28;20033;-67
2023/01/10 00:38:17;;;;;;;12.60;4.70;;;;;;;3.92;100.00;100341.00;5048883;28;20028;-67
2023/01/10 00:40:44;;;;;;;15.73;4.88;;;;;;;3.87;100.00;100340.28;5041701;28;20021;-67
2023/01/10 00:45:53;;;;;;;9.40;4.47;;;;;;;3.89;100.00;100348.88;5052496;28;20091;-67
2023/01/10 00:48:19;;;;;;;14.38;4.78;;;;;;;3.86;100.00;100351.56;5034700;28;20060;-67
2023/01/10 00:50:45;;;;;;;11.23;4.15;;;;;;;3.86;100.00;100354.16;5054113;28;20044;-67
2023/01/10 00:53:11;;;;;;;15.52;4.95;;;;;;;3.82;100.00;100357.72;5055424;28;20025;-67
2023/01/10 00:55:36;;;;;;;18.23;6.68;;;;;;;3.85;100.00;100367.22;5054733;28;20025;-67
2023/01/10 00:58:02;;;;;;;11.07;4.05;;;;;;;3.90;100.00;100376.59;5044235;28;20456;-67
2023/01/10 01:00:28;;;;;;;13.63;4.63;;;;;;;3.93;100.00;100378.25;5054984;28;20021;-67
2023/01/10 01:02:53;;;;;;;12.10;4.45;;;;;;;3.95;100.00;100382.56;5055335;28;20104;-67
2023/01/10 01:05:19;;;;;;;14.73;4.05;;;;;;;3.94;100.00;100378.25;5068273;28;20027;-67
2023/01/10 01:07:48;;;;;;;11.90;4.20;;;;;;;3.88;100.00;100356.75;5037114;28;20104;-67
2023/01/10 01:10:26;;;;;;;17.77;4.53;;;;;;;3.91;100.00;100367.91;5054679;28;20036;-67
2023/01/10 01:13:15;;;;;;;13.55;4.65;;;;;;;4.01;100.00;100382.41;5054928;28;20064;-67
2023/01/10 01:15:41;;;;;;;18.73;4.72;;;;;;;3.98;100.00;100377.28;5027083;28;20028;-67
2023/01/10 01:18:07;;;;;;;19.45;4.20;;;;;;;3.95;100.00;100377.34;5054676;28;20102;-67
2023/01/10 01:20:33;;;;;;;12.90;4.55;;;;;;;3.90;100.00;100371.41;5036288;28;20031;-67
2023/01/10 01:22:59;;;;;;;10.60;4.32;;;;;;;3.89;100.00;100387.88;5054387;28;20148;-67
2023/01/10 01:25:25;;;;;;;16.17;4.68;;;;;;;3.88;100.00;100382.72;5055066;28;20113;-67
2023/01/10 01:27:51;;;;;;;14.60;4.72;;;;;;;3.88;100.00;100386.19;5037131;28;20100;-67
2023/01/10 01:30:16;;;;;;;11.90;4.80;;;;;;;3.84;100.00;100392.34;5036900;28;20475;-67
2023/01/10 01:32:42;;;;;;;10.27;3.97;;;;;;;3.78;100.00;100383.84;5037053;28;20060;-67
2023/01/10 01:35:09;;;;;;;12.30;4.15;;;;;;;3.72;100.00;100389.16;5054375;28;20364;-67
2023/01/10 01:37:34;;;;;;;10.73;3.95;;;;;;;3.46;100.00;100349.03;5036775;28;20033;-67
2023/01/10 01:40:00;;;;;;;17.30;4.32;;;;;;;3.63;100.00;100387.63;5052890;28;20052;-67
2023/01/10 01:42:28;;;;;;;14.45;4.95;;;;;;;3.72;100.00;100405.59;5043976;28;20454;-67
2023/01/10 01:45:19;;;;;;;13.90;4.50;;;;;;;3.67;100.00;100396.19;5053908;28;20068;-67
2023/01/10 01:47:55;;;;;;;8.93;3.70;;;;;;;3.60;100.00;100400.69;5053390;28;20361;-67
2023/01/10 01:50:26;;;;;;;17.65;4.40;;;;;;;3.61;100.00;100412.78;5025302;28;20024;-67
2023/01/10 01:52:54;;;;;;;18.00;5.07;;;;;;;3.63;100.00;100423.97;5036124;28;20029;-67
2023/01/10 01:55:20;;;;;;;11.98;4.13;;;;;;;3.68;100.00;100432.56;5035332;28;20390;-67
2023/01/10 01:57:47;;;;;;;11.98;3.97;;;;;;;3.69;100.00;100435.97;5042874;28;20044;-67
2023/01/10 02:00:13;;;;;;;14.30;4.80;;;;;;;3.64;100.00;100436.09;5054004;28;20064;-67
2023/01/10 02:02:49;;;;;;;8.02;3.70;;;;;;;3.64;100.00;100451.69;5053209;28;20079;-67
2023/01/10 02:05:16;;;;;;;12.27;4.50;;;;;;;3.63;100.00;100452.56;5053942;28;20456;-67
2023/01/10 02:07:44;;;;;;;15.70;4.95;;;;;;;3.62;100.00;100448.25;5034407;28;20032;-67
2023/01/10 02:10:47;;;;;;;19.08;4.53;;;;;;;3.69;100.00;100460.22;5035644;28;20498;-67
2023/01/10 02:13:14;;;;;;;16.05;3.78;;;;;;;3.73;100.00;100455.81;5053522;28;20523;-67
2023/01/10 02:15:40;;;;;;;12.82;4.55;;;;;;;3.71;100.00;100455.88;5053271;28;20036;-67
2023/01/10 02:18:06;;;;;;;19.00;5.10;;;;;;;3.68;100.00;100461.13;5053195;28;20024;-67
2023/01/10 02:20:42;;;;;;;16.08;4.90;;;;;;;3.68;100.00;100473.25;5031947;28;20028;-67
2023/01/10 02:23:16;;;;;;;12.45;4.40;;;;;;;3.63;100.00;100470.75;5050219;28;20472;-67
2023/01/10 02:25:53;;;;;;;12.77;4.82;;;;;;;3.56;100.00;100467.41;5053335;28;20488;-67
2023/01/10 02:28:46;;;;;;;14.20;4.65;;;;;;;3.54;100.00;100476.13;5051955;28;20032;-67
2023/01/10 02:31:29;;;;;;;18.85;4.82;;;;;;;3.53;100.00;100472.69;5053637;28;20084;-67
2023/01/10 02:34:23;;;;;;;15.30;4.53;;;;;;;3.27;100.00;100430.81;5056575;28;20131;-67
2023/01/10 02:37:03;;;;;;;14.38;4.88;;;;;;;3.56;100.00;100479.56;5052595;28;20078;-67
2023/01/10 02:39:35;;;;;;;11.95;3.97;;;;;;;3.52;100.00;100467.50;5053099;28;20505;-67
2023/01/10 02:42:10;;;;;;;12.50;3.88;;;;;;;3.55;100.00;100478.69;5032570;28;20091;-67
2023/01/10 02:44:49;;;;;;;17.23;4.57;;;;;;;3.45;100.00;100460.72;5048507;28;20072;-67
2023/01/10 02:47:15;;;;;;;18.27;5.15;;;;;;;3.42;100.00;100460.78;5053265;28;20033;-67
2023/01/10 02:49:48;;;;;;;15.05;4.47;;;;;;;3.16;100.00;100426.72;5052596;28;20029;-67
2023/01/10 02:52:25;;;;;;;14.65;4.75;;;;;;;3.39;100.00;100468.63;5035456;28;20021;-67
2023/01/10 02:54:54;;;;;;;16.13;4.35;;;;;;;3.09;100.00;100416.44;5021124;28;20029;-67
2023/01/10 02:57:38;;;;;;;18.42;5.88;;;;;;;3.32;100.00;100472.25;5049162;28;20036;-67
2023/01/10 03:00:14;;;;;;;18.98;4.35;;;;;;;3.28;100.00;100487.03;5039095;28;20033;-67
2023/01/10 03:03:03;;;;;;;14.25;5.97;;;;;;;3.15;100.00;100467.38;5052189;28;20029;-67
2023/01/10 03:05:28;;;;;;;17.67;5.15;;;;;;;3.30;100.00;100492.19;5037701;28;20356;-67
2023/01/10 03:08:11;;;;;;;17.63;4.38;;;;;;;3.26;100.00;100500.94;5051476;28;20116;-67
2023/01/10 03:10:50;;;;;;;12.45;4.25;;;;;;;2.99;100.00;100477.19;5049915;28;20132;-67
2023/01/10 03:13:25;;;;;;;14.55;5.07;;;;;;;3.13;100.00;100502.03;5034027;28;20048;-67
2023/01/10 03:15:52;;;;;;;18.20;5.32;;;;;;;3.13;100.00;100509.81;5017273;28;20033;-67
2023/01/10 03:18:22;;;;;;;14.25;5.40;;;;;;;3.18;100.00;100527.03;5034181;28;20082;-67
2023/01/10 03:20:50;;;;;;;14.68;4.95;;;;;;;3.17;100.00;100533.13;5034031;28;20032;-67
2023/01/10 03:23:16;;;;;;;15.98;4.43;;;;;;;3.07;100.00;100524.66;5033322;28;20032;-67
2023/01/10 03:25:43;;;;;;;17.42;5.75;;;;;;;2.97;100.00;100522.22;5051973;28;20100;-67
2023/01/10 03:28:13;;;;;;;23.40;5.80;;;;;;;3.05;100.00;100549.75;5034531;28;20033;-67
2023/01/10 03:30:43;;;;;;;15.88;4.93;;;;;;;2.97;100.00;100545.59;5034440;28;20055;-67
2023/01/10 03:33:10;;;;;;;14.27;5.72;;;;;;;2.90;100.00;100551.75;5034604;28;20399;-67
2023/01/10 03:36:10;;;;;;;17.08;5.30;;;;;;;2.83;100.00;100561.38;5034103;28;20028;-67
2023/01/10 03:38:45;;;;;;;14.95;5.47;;;;;;;2.73;100.00;100552.03;5051829;28;20040;-67
2023/01/10 03:41:25;;;;;;;15.60;5.60;;;;;;;2.71;100.00;100558.09;5052146;28;20033;-67
2023/01/10 03:46:59;;;;;;;13.23;5.22;;;;;;;2.65;100.00;100556.47;5051830;28;20039;-67
2023/01/10 03:49:26;;;;;;;19.20;6.03;;;;;;;2.58;100.00;100553.13;5018357;28;20037;-67
2023/01/10 03:51:53;;;;;;;8.80;4.78;;;;;;;2.39;100.00;100532.69;5028621;28;20072;-67
2023/01/10 03:54:18;;;;;;;12.45;4.75;;;;;;;2.52;100.00;100567.91;5033913;28;20028;-67
2023/01/10 03:56:50;;;;;;;18.23;5.22;;;;;;;2.54;100.00;100581.72;5051492;28;20112;-67
2023/01/10 03:59:21;;;;;;;16.42;5.30;;;;;;;2.53;100.00;100565.28;5051839;28;20037;-67
2023/01/10 04:01:47;;;;;;;23.17;4.70;;;;;;;2.45;100.00;100550.75;5052174;28;20037;-67
2023/01/10 04:04:12;;;;;;;18.33;5.65;;;;;;;2.57;100.00;100568.69;5051654;28;20096;-67
2023/01/10 04:06:37;;;;;;;17.13;6.25;;;;;;;2.68;100.00;100569.41;5051675;28;20036;-67
2023/01/10 04:09:03;;;;;;;14.38;5.85;;;;;;;2.73;100.00;100572.78;5052069;28;20032;-67
2023/01/10 04:11:28;;;;;;;13.20;5.63;;;;;;;2.72;100.00;100568.47;5051886;28;20025;-67
2023/01/10 04:13:54;;;;;;;19.67;5.28;;;;;;;2.78;100.00;100576.16;5011633;28;20935;-67
2023/01/10 04:16:19;;;;;;;17.92;5.70;;;;;;;2.91;100.00;100587.19;5040467;28;20119;-67
2023/01/10 04:18:45;;;;;;;21.67;6.25;;;;;;;2.97;100.00;100582.75;5052545;28;20448;-66
2023/01/10 04:21:10;;;;;;;17.70;5.70;;;;;;;3.11;100.00;100584.28;5053924;28;20032;-67
2023/01/10 04:23:36;;;;;;;18.85;6.07;;;;;;;3.22;100.00;100592.72;5055087;28;20053;-67
2023/01/10 04:26:01;;;;;;;27.23;7.50;;;;;;;3.29;100.00;100584.81;5055905;28;20052;-67
2023/01/10 04:28:27;;;;;;;22.55;6.60;;;;;;;3.30;100.00;100590.88;5055195;28;20395;-67
2023/01/10 04:30:52;;;;;;;33.65;6.20;;;;;;;3.33;100.00;100590.81;5055725;28;20032;-67
2023/01/10 04:33:18;;;;;;;17.98;6.00;;;;;;;3.46;100.00;100607.88;5054912;28;20437;-67
2023/01/10 04:35:47;;;;;;;21.60;6.07;;;;;;;3.53;100.00;100614.69;5055659;28;20029;-67
2023/01/10 04:38:13;;;;;;;17.00;6.07;;;;;;;3.50;100.00;100605.22;5037614;28;20024;-67
2023/01/10 04:40:38;;;;;;;21.23;5.70;;;;;;;3.51;100.00;100611.28;5055598;28;20036;-68
2023/01/10 04:43:03;;;;;;;26.27;6.13;;;;;;;3.50;100.00;100604.34;5055068;28;20037;-67
2023/01/10 04:45:29;;;;;;;22.77;5.53;;;;;;;3.54;100.00;100596.50;5055615;28;20025;-67
2023/01/10 04:47:55;;;;;;;20.73;5.35;;;;;;;3.60;100.00;100592.91;5049803;28;20026;-67
2023/01/10 04:50:21;;;;;;;16.38;6.28;;;;;;;3.61;100.00;100592.03;5050277;28;20390;-67
2023/01/10 04:52:46;;;;;;;17.77;5.82;;;;;;;3.67;100.00;100602.31;5051085;28;20033;-67
2023/01/10 04:55:11;;;;;;;17.00;6.55;;;;;;;3.76;100.00;100619.44;5054361;28;20024;-67
2023/01/10 04:57:37;;;;;;;13.00;5.45;;;;;;;3.82;100.00;100627.97;5054146;28;20029;-67
2023/01/10 05:00:03;;;;;;;16.48;5.15;;;;;;;3.86;100.00;100634.84;5054632;28;20037;-67
2023/01/10 05:02:28;;;;;;;17.58;5.22;;;;;;;3.91;100.00;100646.03;5055597;28;20049;-67
2023/01/10 05:04:53;;;;;;;19.48;6.47;;;;;;;3.91;100.00;100629.56;5055040;28;20052;-67
2023/01/10 05:07:19;;;;;;;18.80;6.15;;;;;;;3.95;100.00;100619.09;5055345;28;20029;-67
2023/01/10 05:09:44;;;;;;;13.63;5.45;;;;;;;3.99;100.00;100610.31;5053825;28;20053;-67
2023/01/10 05:12:10;;;;;;;21.75;5.45;;;;;;;4.01;100.00;100608.56;5052433;28;20029;-67
2023/01/10 05:14:35;;;;;;;22.63;6.03;;;;;;;4.05;100.00;100627.56;5048999;28;20029;-67
2023/01/10 05:17:00;;;;;;;14.50;5.82;;;;;;;4.08;100.00;100636.16;5055407;28;20032;-67
2023/01/10 05:19:26;;;;;;;20.80;5.88;;;;;;;4.06;100.00;100632.72;5054859;28;20420;-67
2023/01/10 05:21:52;;;;;;;26.98;6.25;;;;;;;4.03;100.00;100637.09;5054439;28;20036;-67
2023/01/10 05:24:17;;;;;;;14.82;5.43;;;;;;;4.00;100.00;100642.38;5054469;28;20115;-67
2023/01/10 05:26:43;;;;;;;18.75;6.15;;;;;;;4.05;100.00;100653.56;5054659;28;20028;-67
2023/01/10 05:29:10;;;;;;;22.50;6.47;;;;;;;4.12;100.00;100652.56;5054676;28;20955;-67
2023/01/10 05:31:35;;;;;;;16.98;6.43;;;;;;;4.10;100.00;100644.75;5053790;28;20085;-67
2023/01/10 05:34:01;;;;;;;19.30;6.25;;;;;;;4.18;100.00;100652.41;5052809;28;20379;-67
2023/01/10 05:36:26;;;;;;;26.27;6.03;;;;;;;4.17;100.00;100652.44;5049768;28;20024;-67
2023/01/10 05:38:52;;;;;;;20.83;6.72;;;;;;;4.18;100.00;100647.22;5036497;28;20075;-66
2023/01/10 05:41:17;;;;;;;19.80;7.03;;;;;;;4.23;100.00;100660.97;5049684;28;20423;-67
2023/01/10 05:43:42;;;;;;;17.25;6.25;;;;;;;4.19;100.00;100653.28;5054099;28;20405;-67
2023/01/10 05:46:08;;;;;;;18.67;6.63;;;;;;;4.18;100.00;100651.56;5054299;28;20075;-67
2023/01/10 05:48:33;;;;;;;25.83;6.90;;;;;;;4.24;100.00;100672.22;5054503;28;20025;-67
2023/01/10 05:50:59;;;;;;;30.10;8.57;;;;;;;4.04;100.00;100639.69;5054161;28;20148;-67
2023/01/10 05:53:24;;;;;;;19.80;7.88;;;;;;;4.07;100.00;100663.03;5036343;28;20495;-67
2023/01/10 05:56:00;;;;;;;31.45;9.57;;;;;;;3.95;100.00;100655.47;5053637;28;20017;-67
2023/01/10 05:58:26;;;;;;;31.13;8.25;;;;;;;4.07;100.00;100681.22;5054090;28;20057;-67
2023/01/10 06:00:53;;;;;;;17.65;8.05;;;;;;;4.04;100.00;100683.88;5036473;28;20080;-67
2023/01/10 06:03:18;;;;;;;18.45;6.90;;;;;;;3.92;100.00;100676.31;5054024;28;20032;-67
2023/01/10 06:05:44;;;;;;;25.50;7.28;;;;;;;3.95;100.00;100697.06;5053351;28;20024;-67
2023/01/10 06:08:09;;;;;;;30.27;6.43;;;;;;;3.91;100.00;100700.59;5053576;28;20106;-67
2023/01/10 06:10:35;;;;;;;24.55;7.40;;;;;;;3.80;100.00;100692.13;5035133;28;20150;-67
2023/01/10 06:13:00;;;;;;;15.10;6.15;;;;;;;3.83;100.00;100696.41;5053586;28;20064;-67
2023/01/10 06:15:26;;;;;;;22.13;7.93;;;;;;;3.82;100.00;100705.94;5053653;28;20036;-67
2023/01/10 06:17:52;;;;;;;21.23;6.97;;;;;;;3.35;100.00;100643.56;5053732;28;20099;-67
2023/01/10 06:20:18;;;;;;;16.20;6.32;;;;;;;3.64;100.00;100710.63;5048611;28;20442;-67
2023/01/10 06:22:43;;;;;;;19.08;7.22;;;;;;;3.50;100.00;100687.47;5045545;28;20036;-67
2023/01/10 06:25:09;;;;;;;27.73;7.68;;;;;;;3.63;100.00;100709.75;5053293;28;20028;-67
2023/01/10 06:27:35;;;;;;;24.83;7.43;;;;;;;3.62;100.00;100702.84;5053352;28;20031;-67
2023/01/10 06:30:00;;;;;;;19.13;7.63;;;;;;;3.69;100.00;100703.59;5035500;28;20028;-67
2023/01/10 06:32:26;;;;;;;13.52;5.95;;;;;;;3.74;100.00;100707.84;5053638;28;20029;-66
2023/01/10 06:34:52;;;;;;;20.58;8.05;;;;;;;3.73;100.00;100719.09;5053284;28;20071;-67
2023/01/10 06:37:17;;;;;;;29.70;7.40;;;;;;;3.74;100.00;100717.38;5053760;28;20542;-67
2023/01/10 06:39:45;;;;;;;26.33;8.10;;;;;;;3.67;100.00;100716.63;5053287;28;20037;-67
2023/01/10 06:42:10;;;;;;;18.23;6.65;;;;;;;3.73;100.00;100729.50;5052906;28;20083;-67
2023/01/10 06:44:36;;;;;;;21.27;6.95;;;;;;;3.66;100.00;100729.63;5052399;28;20040;-67
2023/01/10 06:47:01;;;;;;;25.05;7.80;;;;;;;3.58;100.00;100721.97;5049743;28;20127;-67
2023/01/10 06:49:27;;;;;;;23.67;7.50;;;;;;;3.59;100.00;100741.84;5051117;28;20033;-67
2023/01/10 06:51:52;;;;;;;27.52;7.65;;;;;;;3.50;100.00;100723.84;5050799;28;20445;-66
2023/01/10 06:54:17;;;;;;;32.25;8.48;;;;;;;3.57;100.00;100731.50;5052569;28;20043;-67
2023/01/10 06:56:43;;;;;;;33.45;7.22;;;;;;;3.51;100.00;100736.81;5052073;28;20049;-67
2023/01/10 06:59:08;;;;;;;31.33;8.88;;;;;;;3.44;100.00;100735.19;5052909;28;20035;-67
2023/01/10 07:01:34;;;;;;;25.23;7.03;;;;;;;3.37;100.00;100727.50;5052334;28;20029;-67
2023/01/10 07:03:59;;;;;;;21.02;7.32;;;;;;;3.43;100.00;100743.00;5052763;28;20059;-67
2023/01/10 07:06:24;;;;;;;27.10;7.55;;;;;;;3.46;100.00;100746.41;5052996;28;20115;-67
2023/01/10 07:08:50;;;;;;;25.98;6.45;;;;;;;3.39;100.00;100751.69;5066913;28;20029;-67
2023/01/10 07:11:16;;;;;;;24.70;7.20;;;;;;;3.23;100.00;100724.25;5050513;28;20044;-67
2023/01/10 07:13:41;;;;;;;29.25;6.68;;;;;;;3.37;100.00;100756.94;5052711;28;20091;-67
2023/01/10 07:16:09;;;;;;;26.73;8.07;;;;;;;3.26;100.00;100751.03;5030951;28;20680;-67
2023/01/10 07:18:36;;;;;;;31.55;7.20;;;;;;;3.08;100.00;100726.19;5052525;28;20090;-67
2023/01/10 07:21:01;;;;;;;23.60;5.70;;;;;;;3.30;100.00;100759.66;5017939;28;20025;-67
2023/01/10 07:23:27;;;;;;;21.38;6.32;;;;;;;3.26;100.00;100777.00;5034293;28;20028;-67
2023/01/10 07:25:52;;;;;;;24.55;7.00;;;;;;;3.26;100.00;100778.75;5047967;28;20043;-67
2023/01/10 07:28:18;;;;;;;15.32;5.65;;;;;;;3.18;100.00;100765.03;5052377;28;20394;-67
2023/01/10 07:30:43;;;;;;;21.75;7.13;;;;;;;3.17;100.00;100773.69;5052705;28;20032;-67
2023/01/10 07:33:09;;;;;;;27.80;7.13;;;;;;;3.17;100.00;100776.28;5052454;28;20025;-67
2023/01/10 07:35:34;;;;;;;29.00;7.18;;;;;;;3.19;100.00;100784.91;5052391;28;20044;-67
2023/01/10 07:38:02;;;;;;;19.73;6.43;;;;;;;3.24;100.00;100783.09;5034802;28;20507;-67
2023/01/10 07:40:27;;;;;;;20.70;6.78;;;;;;;3.07;100.00;100765.19;5034466;28;20078;-67
2023/01/10 07:42:57;;;;;;;22.20;6.25;;;;;;;3.18;100.00;100788.41;5034292;28;20029;-67
2023/01/10 07:45:22;;;;;;;28.33;6.47;;;;;;;3.23;100.00;100796.97;5052011;28;20472;-67
2023/01/10 07:47:48;;;;;;;17.27;6.45;;;;;;;3.03;100.00;100785.13;5034395;28;20040;-67
2023/01/10 07:50:14;;;;;;;20.70;6.95;;;;;;;3.22;100.00;100810.81;5052350;28;20098;-66
2023/01/10 07:52:39;;;;;;;30.52;6.75;;;;;;;3.23;100.00;100815.13;5052005;28;20155;-67
2023/01/10 07:55:05;;;;;;;29.85;6.85;;;;;;;3.17;100.00;100810.03;5051912;28;20029;-67
2023/01/10 07:57:31;;;;;;;32.60;7.00;;;;;;;2.88;100.00;100764.53;5039287;28;20059;-67
2023/01/10 07:59:57;;;;;;;22.95;6.35;;;;;;;3.24;100.00;100819.47;5050335;28;20788;-67
2023/01/10 08:02:22;;;;;;;31.38;6.75;;;;;;;3.32;100.00;100831.44;5032818;28;20120;-67
2023/01/10 08:04:48;;;;;;;20.80;6.03;;;;;;;3.31;100.00;100836.66;5046011;28;20395;-67
2023/01/10 08:07:13;;;;;;;21.30;6.95;;;;;;;3.28;100.00;100828.94;5051857;28;20052;-67
2023/01/10 08:09:38;;;;;;;29.02;6.68;;;;;;;3.33;100.00;100830.56;5033531;28;20060;-67
2023/01/10 08:12:04;;;;;;;26.00;7.13;;;;;;;3.31;100.00;100806.34;5038565;28;20021;-67
2023/01/10 08:14:29;;;;;;;29.98;7.03;;;;;;;3.41;100.00;100820.09;5047386;28;20036;-66
2023/01/10 08:16:55;;;;;;;18.90;7.03;;;;;;;3.34;100.00;100806.34;5051363;28;20025;-67
2023/01/10 08:19:20;;;;;;;23.67;6.75;;;;;;;3.31;100.00;100800.31;5033719;28;20036;-67
2023/01/10 08:21:45;;;;;;;18.52;6.95;;;;;;;3.25;100.00;100795.19;5051684;28;20722;-67
2023/01/10 08:24:11;;;;;;;19.40;6.22;;;;;;;3.44;100.00;100809.66;5051827;28;20068;-67
2023/01/10 08:26:36;;;;;;;20.95;5.85;;;;;;;3.41;100.00;100804.50;5033492;28;20028;-67
2023/01/10 08:29:02;;;;;;;18.63;7.28;;;;;;;3.40;100.00;100789.78;5051874;28;20424;-67
2023/01/10 08:31:27;;;;;;;18.75;6.35;;;;;;;3.53;100.00;100812.09;5051391;28;20066;-67
2023/01/10 08:33:52;;;;;;;20.58;7.78;;;;;;;3.49;100.00;100798.28;5033891;28;20472;-67
2023/01/10 08:36:20;;;;;;;22.75;6.22;;;;;;;3.53;100.00;100806.91;5033906;28;20027;-67
2023/01/10 08:38:47;;;;;;;17.33;6.25;;;;;;;3.21;100.00;100752.00;5033913;28;20025;-67
2023/01/10 08:41:12;;;;;;;18.85;6.25;;;;;;;3.46;100.00;100789.69;5051513;28;20025;-67
2023/01/10 08:43:39;;;;;;;21.13;7.20;;;;;;;3.62;100.00;100811.94;5033857;28;20040;-67
2023/01/10 08:46:05;;;;;;;21.70;6.68;;;;;;;3.67;100.00;100812.75;5051753;28;20490;-67
2023/01/10 08:48:30;;;;;;;18.55;6.30;;;;;;;3.70;100.00;100814.44;5052151;28;20021;-67
2023/01/10 08:50:56;;;;;;;23.00;6.93;;;;;;;3.77;100.00;100821.25;5033189;28;20481;-67
2023/01/10 08:53:21;;;;;;;22.95;6.28;;;;;;;3.84;100.00;100818.53;5051306;28;20036;-67
2023/01/10 08:55:48;;;;;;;18.15;5.90;;;;;;;3.94;100.00;100830.50;5033452;28;20033;-67
2023/01/10 08:58:13;;;;;;;15.40;6.00;;;;;;;3.96;100.00;100817.47;5051708;28;20115;-67
2023/01/10 09:00:39;;;;;;;23.08;5.63;;;;;;;4.03;100.00;100825.16;5051518;28;20048;-67
2023/01/10 09:03:06;;;;;;;26.50;6.00;;;;;;;4.09;100.00;100825.03;5033545;28;20025;-66
2023/01/10 09:05:31;;;;;;;16.30;5.10;;;;;;;4.13;100.00;100820.66;5030891;28;20029;-67
2023/01/10 09:07:58;;;;;;;15.80;4.82;;;;;;;4.20;100.00;100816.19;5040291;28;20021;-67
2023/01/10 09:10:24;;;;;;;14.25;5.75;;;;;;;4.21;100.00;100807.53;5034500;28;20090;-67
2023/01/10 09:12:56;;;;;;;19.13;5.90;;;;;;;4.25;100.00;100807.44;5037401;28;20029;-67
2023/01/10 09:15:23;;;;;;;19.38;5.47;;;;;;;4.34;100.00;100816.81;5037589;28;20143;-67
2023/01/10 09:17:51;;;;;;;26.10;6.35;;;;;;;4.47;100.00;100816.56;5054656;28;20110;-66
2023/01/10 09:20:16;;;;;;;20.65;6.13;;;;;;;4.53;100.00;100821.66;5037341;28;20471;-67
2023/01/10 09:22:42;;;;;;;19.17;4.80;;;;;;;4.62;100.00;100815.44;5054804;28;20032;-67
2023/01/10 09:25:07;;;;;;;24.30;7.13;;;;;;;4.75;100.00;100819.50;5036743;28;20032;-67
2023/01/10 09:27:32;;;;;;;18.35;5.88;;;;;;;4.85;100.00;100823.63;5054928;28;20036;-66
2023/01/10 09:29:58;;;;;;;15.43;5.47;;;;;;;4.92;100.00;100819.16;5054301;28;20032;-66
2023/01/10 09:32:24;;;;;;;18.02;5.65;;;;;;;5.03;100.00;100819.81;5054678;28;20021;-67
2023/01/10 09:34:49;;;;;;;20.30;4.88;;;;;;;5.08;100.00;100826.63;5036650;28;20044;-67
2023/01/10 09:37:15;;;;;;;16.98;5.95;;;;;;;5.12;100.00;100825.69;5037144;28;20033;-66
2023/01/10 09:39:40;;;;;;;23.58;6.80;;;;;;;5.19;100.00;100820.31;5054648;28;20025;-66
2023/01/10 09:42:39;;;;;;;17.08;5.50;;;;;;;5.21;100.00;100821.13;5054412;28;20041;-67
2023/01/10 09:45:19;;;;;;;19.58;5.68;;;;;;;5.13;100.00;100806.56;5045908;28;20489;-67
2023/01/10 09:47:47;;;;;;;20.70;6.03;;;;;;;5.33;100.00;100829.56;5054215;28;20025;-66
2023/01/10 09:50:34;;;;;;;20.95;5.78;;;;;;;5.36;100.00;100820.81;5054385;28;20398;-66
2023/01/10 09:53:19;;;;;;;17.27;6.35;;;;;;;5.40;100.00;100822.47;5044325;28;20033;-67
2023/01/10 09:55:51;;;;;;;20.85;5.85;;;;;;;5.31;100.00;100796.59;5036068;28;20068;-67
2023/01/10 09:58:19;;;;;;;22.83;5.38;;;;;;;5.51;100.00;100815.25;5036409;28;20557;-67
2023/01/10 10:00:57;;;;;;;19.67;6.38;;;;;;;5.57;100.00;100816.00;5023761;28;20048;-67
2023/01/10 10:03:36;;;;;;;11.85;5.50;;;;;;;5.64;100.00;100814.94;5036148;28;20060;-66
2023/01/10 10:06:02;;;;;;;17.45;6.35;;;;;;;5.68;100.00;100807.91;5048433;28;20463;-67
2023/01/10 10:08:27;;;;;;;14.90;5.78;;;;;;;5.53;100.00;100777.00;5052912;28;20028;-67
2023/01/10 10:11:14;;;;;;;18.10;5.75;;;;;;;5.76;100.00;100800.75;5052439;28;20028;-66
2023/01/10 10:13:47;;;;;;;16.85;5.50;;;;;;;5.65;100.00;100779.31;5047187;28;20579;-66
2023/01/10 10:16:21;;;;;;;17.83;5.57;;;;;;;5.95;100.00;100811.63;5067207;28;20029;-66
2023/01/10 10:18:55;;;;;;;;;;;;;;;5.99;100.00;100818.47;5051939;28;20095;-67
2023/01/10 10:22:02;;;;;;;25.13;6.90;;;;;;;6.04;100.00;100807.06;5055932;28;20372;-66
2023/01/10 10:24:52;;;;;;;15.80;5.72;;;;;;;6.09;100.00;100799.09;4970756;28;20100;-66
2023/01/10 10:27:23;;;;;;;19.20;5.47;;;;;;;6.12;100.00;100799.88;5046759;28;20053;-66
2023/01/10 10:29:54;;;;;;;14.73;5.70;;;;;;;6.18;100.00;100787.59;5051955;28;20033;-67
2023/01/10 10:32:43;;;;;;;20.58;6.40;;;;;;;6.26;100.00;100775.19;5052215;28;20033;-66
2023/01/10 10:35:15;;;;;;;18.30;6.22;;;;;;;6.34;100.00;100773.22;5043413;28;20452;-66
2023/01/10 10:37:49;;;;;;;13.65;5.03;;;;;;;6.40;100.00;100780.91;5033375;28;20040;-66
2023/01/10 10:40:22;;;;;;;20.58;5.82;;;;;;;6.44;100.00;100769.47;5025145;28;20036;-66
2023/01/10 10:42:50;;;;;;;12.68;4.50;;;;;;;6.49;100.00;100768.44;5033553;28;20036;-66
2023/01/10 10:45:21;;;;;;;13.10;4.97;;;;;;;6.53;100.00;100764.84;5049430;28;20051;-66
2023/01/10 10:47:59;;;;;;;16.95;6.13;;;;;;;6.60;100.00;100763.78;5052642;28;20449;-66
2023/01/10 10:50:31;;;;;;;11.50;5.22;;;;;;;6.64;100.00;100761.94;5047085;28;20482;-66
2023/01/10 10:52:59;;;;;;;22.92;6.13;;;;;;;6.63;100.00;100749.78;5033158;28;20059;-66
2023/01/10 10:55:31;;;;;;;18.92;4.78;;;;;;;6.56;100.00;100736.06;5032469;28;20068;-66
2023/01/10 10:57:57;;;;;;;11.85;5.03;;;;;;;6.64;100.00;100735.84;5039062;28;20041;-67
2023/01/10 11:00:23;;;;;;;23.23;5.82;;;;;;;6.67;100.00;100739.22;5049572;28;20036;-67
2023/01/10 11:03:08;;;;;;;12.90;5.32;;;;;;;6.54;100.00;100714.38;5051378;28;20037;-66
2023/01/10 11:05:39;;;;;;;18.00;6.05;;;;;;;6.67;100.00;100730.53;5051397;28;20055;-67
2023/01/10 11:08:09;;;;;;;16.48;5.05;;;;;;;6.78;100.00;100736.31;5034641;28;20108;-66
2023/01/10 11:10:34;;;;;;;16.33;5.60;;;;;;;6.75;100.00;100723.34;5034750;28;20111;-66
2023/01/10 11:13:29;;;;;;;20.65;5.38;;;;;;;6.84;100.00;100723.06;5034522;28;20143;-67
2023/01/10 11:15:54;;;;;;;23.25;5.43;;;;;;;6.80;100.00;100710.13;5044579;28;20063;-67
2023/01/10 11:18:23;;;;;;;13.25;5.55;;;;;;;6.88;100.00;100718.59;5032799;28;20029;-67
2023/01/10 11:21:14;;;;;;;15.75;5.43;;;;;;;6.95;100.00;100715.75;5039903;28;20025;-66
2023/01/10 11:23:41;;;;;;;28.67;6.78;;;;;;;6.99;100.00;100712.16;5030241;28;20064;-66
2023/01/10 11:26:10;;;;;;;16.95;5.75;;;;;;;7.03;100.00;100716.38;5021856;28;20034;-66
2023/01/10 11:28:36;;;;;;;21.52;4.95;;;;;;;7.04;100.00;100720.69;5049698;28;20107;-66
2023/01/10 11:31:02;;;;;;;17.67;5.63;;;;;;;7.05;100.00;100711.09;5034028;28;20105;-67
2023/01/10 11:33:30;;;;;;;14.25;5.97;;;;;;;6.92;100.00;100689.75;5033771;28;20497;-66